Ashland, ME (04737)

11:13 AM EDT on August 27, 2016 (GMT -0400)
Northern Maine Regional At Presque Isle | | Change Station

Elev 479 ft 46.69 °N, 68.04 °W | Updated 17 minutes ago

Clear
Clear
70 °F
Feels Like 70 °F
N
14
Wind Variable Wind from North

Today
High -- | Low -- °F
--% Chance of Precip.
Yesterday
High -- | Low -- °F
Precip. -- in
Pressure 30.30 in
Visibility 10.0 miles
Clouds Clear
Dew Point 54 °F
Humidity 57%
Rainfall 0.00 in
Snow Depth Not available.
5:52 AM 7:25 PM
Waning Crescent, 24% visible
METAR KPQI 271456Z AUTO 35012KT 10SM CLR 21/12 A3019 RMK AO2 SLP258 T02110122 51014
Pressure 30.30 in
Visibility 10.0 miles
Clouds Clear
Dew Point 54 °F
Humidity 57%
Rainfall 0.00 in
Snow Depth Not available.
5:52 AM 7:25 PM
Waning Crescent, 24% visible
METAR KPQI 271456Z AUTO 35012KT 10SM CLR 21/12 A3019 RMK AO2 SLP258 T02110122 51014

10-Day Weather Forecast

Almanac

Astronomy

Aug. 27, 2016 Rise Set
Actual Time
Civil Twilight
Nautical Twilight
Astronomical Twilight
Moon
Length of Visible Light
Length of Day
Tomorrow will be .
, % of the Moon is Illuminated

Today's Extremes

State Highs State Lows

Community

WunderPhotos

Upload Photos

1,935,354 photos uploaded!

WunderBlog® & News

Nearby

Air Quality

  Air Quality AQ Index Pollutant
Not available.

Snow Depth

Station Depth Elevation

Earthquake Activity

City Distance Mag. Time & Date
Minimum magnitude displayed is 2.5.

Coastal Water Temperatures

Place Temperature

Stations

Nearby Weather Stations

Station Location Temp. Windchill Dew Point Humidity Wind Precip. Elev Updated Type
                   

Watches & Warnings

There are currently no watches in effect.